Time;durP1;ratioP1;P1;durP2;ratioP2;P2;SDS_P1;SDS_P2;PMS_P1;PMS_P2;Temp;Humidity;BMP_temperature;BMP_pressure;BME280_temperature;BME280_humidity;BME280_pressure;Samples;Min_cycle;Max_cycle;Signal;HPM_P1;HPM_P2
2023/03/17 00:01:24;;;;;;;4.15;1.63;;;7.70;38.40;;;;;;4995330;28;20065;-85
2023/03/17 00:03:50;;;;;;;12.05;2.13;;;7.60;38.30;;;;;;4995121;28;20058;-85
2023/03/17 00:06:23;;;;;;;2.50;1.52;;;7.60;38.90;;;;;;4995170;28;20030;-84
2023/03/17 00:08:49;;;;;;;4.88;1.85;;;7.60;39.40;;;;;;4994777;28;20088;-84
2023/03/17 00:11:17;;;;;;;2.90;1.10;;;7.50;39.40;;;;;;4994737;28;20124;-85
2023/03/17 00:13:44;;;;;;;4.43;1.67;;;7.50;39.20;;;;;;4992809;28;20034;-85
2023/03/17 00:16:25;;;;;;;6.43;2.00;;;7.40;39.50;;;;;;4993626;28;20357;-85
2023/03/17 00:18:53;;;;;;;4.05;1.80;;;7.40;40.10;;;;;;4996452;28;20386;-85
2023/03/17 00:21:37;;;;;;;3.53;1.70;;;7.30;40.00;;;;;;4994569;28;20027;-85
2023/03/17 00:24:09;;;;;;;7.07;2.10;;;7.30;39.70;;;;;;4995031;28;20502;-85
2023/03/17 00:26:35;;;;;;;6.65;2.22;;;7.30;40.30;;;;;;4994053;28;20037;-85
2023/03/17 00:29:07;;;;;;;2.17;1.40;;;7.20;41.20;;;;;;4993278;28;20503;-85
2023/03/17 00:31:33;;;;;;;2.33;1.50;;;7.20;40.50;;;;;;4994084;28;20092;-85
2023/03/17 00:33:59;;;;;;;2.25;1.25;;;7.20;41.10;;;;;;4994262;28;20399;-85
2023/03/17 00:36:31;;;;;;;4.63;1.60;;;7.10;41.00;;;;;;4994052;28;20034;-85
2023/03/17 00:39:00;;;;;;;3.35;1.55;;;7.10;41.10;;;;;;4994202;28;20033;-84
2023/03/17 00:41:26;;;;;;;3.42;1.52;;;7.00;41.40;;;;;;4994238;28;20026;-85
2023/03/17 00:43:52;;;;;;;3.22;1.67;;;7.00;41.90;;;;;;4994296;28;20030;-85
2023/03/17 00:46:27;;;;;;;5.07;1.60;;;6.90;41.70;;;;;;4994274;28;20036;-85
2023/03/17 00:49:02;;;;;;;3.28;1.58;;;6.90;41.70;;;;;;4991783;28;20505;-85
2023/03/17 00:51:28;;;;;;;7.30;1.83;;;6.90;41.10;;;;;;4994091;28;20034;-85
2023/03/17 00:53:56;;;;;;;4.78;2.08;;;6.90;41.50;;;;;;4994171;28;20464;-85
2023/03/17 00:56:22;;;;;;;3.22;2.13;;;6.90;41.90;;;;;;4993346;28;20027;-85
2023/03/17 00:58:48;;;;;;;3.80;1.83;;;6.90;42.30;;;;;;4991540;28;20084;-85
2023/03/17 01:01:17;;;;;;;2.70;1.20;;;6.80;41.80;;;;;;4993881;28;20061;-85
2023/03/17 01:03:44;;;;;;;9.07;3.35;;;6.90;41.50;;;;;;4992827;28;20117;-85
2023/03/17 01:06:14;;;;;;;4.50;2.30;;;6.80;42.20;;;;;;4993531;28;20484;-85
2023/03/17 01:08:41;;;;;;;4.00;2.20;;;6.80;42.50;;;;;;4994690;28;20040;-84
2023/03/17 01:11:17;;;;;;;3.90;1.80;;;6.80;42.40;;;;;;4993671;28;20030;-85
2023/03/17 01:13:49;;;;;;;4.82;1.58;;;6.70;42.50;;;;;;4984723;28;20046;-85
2023/03/17 01:16:18;;;;;;;4.40;1.80;;;6.70;42.50;;;;;;4993505;28;20085;-85
2023/03/17 01:18:44;;;;;;;6.22;2.03;;;6.70;42.50;;;;;;4992733;28;20036;-85
2023/03/17 01:21:13;;;;;;;3.92;2.17;;;6.70;42.40;;;;;;4993560;28;20026;-84
2023/03/17 01:23:42;;;;;;;8.60;2.22;;;6.70;43.10;;;;;;4991472;28;20053;-85
2023/03/17 01:26:11;;;;;;;6.38;2.53;;;6.70;43.20;;;;;;4993343;28;20034;-85
2023/03/17 01:28:42;;;;;;;3.80;1.95;;;6.70;43.40;;;;;;4993114;28;20034;-86
2023/03/17 01:31:11;;;;;;;8.05;5.47;;;6.60;43.80;;;;;;4993442;28;20121;-86
2023/03/17 01:33:37;;;;;;;12.95;7.70;;;6.50;43.90;;;;;;4993263;28;20033;-85
2023/03/17 01:36:03;;;;;;;14.73;7.60;;;6.50;44.40;;;;;;4993292;28;20030;-85
2023/03/17 01:38:30;;;;;;;12.65;6.85;;;6.50;44.10;;;;;;4992964;28;20033;-85
2023/03/17 01:40:56;;;;;;;7.45;3.55;;;6.40;44.10;;;;;;4993181;28;20121;-85
2023/03/17 01:43:31;;;;;;;4.00;2.22;;;6.40;44.10;;;;;;4994359;28;20483;-85
2023/03/17 01:46:34;;;;;;;4.85;2.78;;;6.50;44.10;;;;;;4992897;28;20169;-86
2023/03/17 01:49:09;;;;;;;5.28;2.47;;;6.40;45.30;;;;;;4998032;28;20060;-86
2023/03/17 01:51:41;;;;;;;5.55;2.30;;;6.40;44.60;;;;;;4991575;28;20030;-85
2023/03/17 01:54:24;;;;;;;;;;;;;;;;;;;;;
2023/03/17 01:56:54;;;;;;;6.55;1.90;;;6.30;44.60;;;;;;4994085;28;20494;-85
2023/03/17 01:59:25;;;;;;;5.60;2.00;;;6.30;44.90;;;;;;4991645;28;20023;-85
2023/03/17 02:01:56;;;;;;;7.55;1.90;;;6.30;44.90;;;;;;4991923;28;20081;-85
2023/03/17 02:04:25;;;;;;;3.42;1.70;;;6.30;44.80;;;;;;4991873;28;20121;-85
2023/03/17 02:06:54;;;;;;;4.15;1.83;;;6.30;44.80;;;;;;4992172;28;20038;-86
2023/03/17 02:09:20;;;;;;;4.78;2.72;;;6.30;45.40;;;;;;4992354;28;20081;-86
2023/03/17 02:11:46;;;;;;;8.45;3.90;;;6.20;45.60;;;;;;4992333;28;20034;-85
2023/03/17 02:14:15;;;;;;;7.00;5.82;;;6.10;45.60;;;;;;4987636;28;20026;-85
2023/03/17 02:16:46;;;;;;;6.25;4.25;;;6.10;45.60;;;;;;4992059;28;20125;-86
2023/03/17 02:19:15;;;;;;;7.88;4.05;;;6.10;45.90;;;;;;4992215;28;20030;-87
2023/03/17 02:21:51;;;;;;;6.63;2.50;;;6.20;46.10;;;;;;4989895;28;20030;-86
2023/03/17 02:24:40;;;;;;;6.80;2.83;;;6.10;46.10;;;;;;4992468;28;20471;-85
2023/03/17 02:27:32;;;;;;;5.18;2.25;;;6.00;46.20;;;;;;4990367;28;20050;-85
2023/03/17 02:29:58;;;;;;;3.17;1.70;;;6.10;46.40;;;;;;4991447;28;20034;-85
2023/03/17 02:32:27;;;;;;;2.55;1.40;;;6.10;46.40;;;;;;4992347;28;20034;-85
2023/03/17 02:34:53;;;;;;;7.18;1.92;;;6.00;46.00;;;;;;4991918;28;20034;-85
2023/03/17 02:37:19;;;;;;;8.45;2.47;;;6.00;46.20;;;;;;4992023;28;20165;-85
2023/03/17 02:39:48;;;;;;;3.17;1.80;;;6.00;46.60;;;;;;4991837;28;20044;-85
2023/03/17 02:42:14;;;;;;;3.55;1.80;;;5.90;46.70;;;;;;4992234;28;20034;-85
2023/03/17 02:44:40;;;;;;;4.38;2.10;;;6.00;46.50;;;;;;4992160;28;20361;-86
2023/03/17 02:47:07;;;;;;;3.50;1.60;;;6.00;46.60;;;;;;4991761;28;20034;-84
2023/03/17 02:49:40;;;;;;;2.47;1.65;;;6.00;46.40;;;;;;4991695;28;20038;-84
2023/03/17 02:52:07;;;;;;;4.30;1.63;;;6.00;46.30;;;;;;4991950;28;20046;-85
2023/03/17 02:54:35;;;;;;;17.35;2.50;;;6.00;46.10;;;;;;4991845;28;20030;-84
2023/03/17 02:57:04;;;;;;;3.60;1.55;;;6.00;46.10;;;;;;4990660;28;20088;-86
2023/03/17 02:59:32;;;;;;;5.05;2.10;;;6.00;45.90;;;;;;4991679;28;20022;-86
2023/03/17 03:01:59;;;;;;;4.22;1.77;;;6.00;46.30;;;;;;4991549;28;20117;-85
2023/03/17 03:04:26;;;;;;;21.30;3.25;;;6.00;46.60;;;;;;4991763;28;20035;-85
2023/03/17 03:06:55;;;;;;;16.05;2.55;;;5.90;46.60;;;;;;4991687;28;20118;-85
2023/03/17 03:09:21;;;;;;;5.82;2.17;;;5.90;46.60;;;;;;4990994;28;20083;-85
2023/03/17 03:11:47;;;;;;;7.28;1.70;;;5.90;46.40;;;;;;4991306;28;20391;-86
2023/03/17 03:14:13;;;;;;;2.25;1.65;;;5.90;46.40;;;;;;4992825;28;20030;-84
2023/03/17 03:16:39;;;;;;;3.88;1.70;;;5.90;46.30;;;;;;4991140;28;20043;-85
2023/03/17 03:19:08;;;;;;;5.63;1.45;;;5.90;46.10;;;;;;4995455;28;20161;-85
2023/03/17 03:21:37;;;;;;;4.63;1.48;;;5.90;46.10;;;;;;4995814;28;20027;-85
2023/03/17 03:24:04;;;;;;;3.90;1.75;;;5.90;46.40;;;;;;4996437;28;20419;-85
2023/03/17 03:26:30;;;;;;;7.85;1.95;;;5.90;46.70;;;;;;4995446;28;20041;-85
2023/03/17 03:28:57;;;;;;;4.57;1.90;;;5.90;46.80;;;;;;4996435;28;20035;-85
2023/03/17 03:31:23;;;;;;;5.15;2.20;;;5.80;46.70;;;;;;4996144;28;20118;-84
2023/03/17 03:33:49;;;;;;;9.55;2.00;;;5.80;46.90;;;;;;4996542;28;20444;-85
2023/03/17 03:36:17;;;;;;;5.95;2.17;;;5.80;47.00;;;;;;4995266;28;20040;-85
2023/03/17 03:38:44;;;;;;;6.22;1.95;;;5.70;47.30;;;;;;4995103;28;20027;-85
2023/03/17 03:41:12;;;;;;;4.05;1.90;;;5.70;47.30;;;;;;4995300;28;20034;-84
2023/03/17 03:43:41;;;;;;;4.45;1.90;;;5.60;47.50;;;;;;4994289;28;20029;-84
2023/03/17 03:46:06;;;;;;;2.75;1.60;;;5.60;47.40;;;;;;4996368;28;20037;-85
2023/03/17 03:48:33;;;;;;;10.63;2.22;;;5.70;47.20;;;;;;4996267;28;20034;-85
2023/03/17 03:51:00;;;;;;;4.93;2.00;;;5.60;47.30;;;;;;4994945;28;20052;-84
2023/03/17 03:53:27;;;;;;;8.25;2.10;;;5.60;47.30;;;;;;4994726;28;20095;-84
2023/03/17 03:55:54;;;;;;;4.00;1.95;;;5.60;47.30;;;;;;4994896;28;20450;-85
2023/03/17 03:58:22;;;;;;;4.32;1.77;;;5.70;47.00;;;;;;4994889;28;20033;-84
2023/03/17 04:00:48;;;;;;;4.32;2.00;;;5.70;46.90;;;;;;4994570;28;20033;-84
2023/03/17 04:03:14;;;;;;;8.15;2.75;;;5.70;46.90;;;;;;4994788;28;20468;-85
2023/03/17 04:05:40;;;;;;;10.43;3.22;;;5.70;47.00;;;;;;4994465;28;20046;-85
2023/03/17 04:08:07;;;;;;;8.20;3.10;;;5.70;46.90;;;;;;4994389;28;20038;-85
2023/03/17 04:10:33;;;;;;;12.40;3.67;;;5.70;47.00;;;;;;4994895;28;20045;-85
2023/03/17 04:13:00;;;;;;;7.28;2.83;;;5.70;46.90;;;;;;4992596;28;20037;-84
2023/03/17 04:15:26;;;;;;;11.30;3.95;;;5.70;46.80;;;;;;4994009;28;20181;-86
2023/03/17 04:17:53;;;;;;;6.10;2.70;;;5.70;47.10;;;;;;4993487;28;20350;-85
2023/03/17 04:20:20;;;;;;;10.02;3.40;;;5.70;47.10;;;;;;4994543;28;20503;-84
2023/03/17 04:22:46;;;;;;;6.97;3.25;;;5.70;46.90;;;;;;4994504;28;20038;-84
2023/03/17 04:25:13;;;;;;;12.02;4.43;;;5.70;46.70;;;;;;4992820;28;20519;-84
2023/03/17 04:27:41;;;;;;;8.95;3.67;;;5.70;47.00;;;;;;4993750;28;20018;-84
2023/03/17 04:30:09;;;;;;;12.20;3.65;;;5.70;47.20;;;;;;4995025;28;20396;-85
2023/03/17 04:32:35;;;;;;;14.13;3.80;;;5.70;47.20;;;;;;4994433;28;20034;-85
2023/03/17 04:35:01;;;;;;;9.77;3.55;;;5.70;47.60;;;;;;4993791;28;20037;-84
2023/03/17 04:37:30;;;;;;;6.97;3.05;;;5.80;47.60;;;;;;4994086;28;20018;-84
2023/03/17 04:39:57;;;;;;;7.47;3.30;;;5.80;47.50;;;;;;4993124;28;20041;-84
2023/03/17 04:42:22;;;;;;;9.65;3.58;;;5.80;47.50;;;;;;4994196;28;20041;-84
2023/03/17 04:44:48;;;;;;;9.25;3.92;;;5.90;47.70;;;;;;4994049;28;20022;-84
2023/03/17 04:47:15;;;;;;;12.73;4.78;;;5.90;48.50;;;;;;4993884;28;20022;-85
2023/03/17 04:49:41;;;;;;;11.00;4.30;;;5.80;48.60;;;;;;4994042;28;20030;-83
2023/03/17 04:52:07;;;;;;;15.63;4.50;;;5.80;49.00;;;;;;4993560;28;20023;-83
2023/03/17 04:54:33;;;;;;;11.88;4.72;;;5.80;48.70;;;;;;4993665;28;20050;-85
2023/03/17 04:56:59;;;;;;;8.27;4.00;;;5.90;48.80;;;;;;4993684;28;20460;-85
2023/03/17 04:59:24;;;;;;;8.65;3.45;;;5.90;49.00;;;;;;4994590;28;20040;-84
2023/03/17 05:01:50;;;;;;;10.13;3.95;;;5.90;49.10;;;;;;4993907;28;20030;-84
2023/03/17 05:04:16;;;;;;;12.02;4.25;;;5.90;49.20;;;;;;4993519;28;20310;-85
2023/03/17 05:06:42;;;;;;;10.88;3.70;;;5.80;49.30;;;;;;4993901;28;20027;-85
2023/03/17 05:09:08;;;;;;;10.85;4.13;;;5.80;49.50;;;;;;4993643;28;20080;-85
2023/03/17 05:11:35;;;;;;;9.63;3.88;;;5.80;49.60;;;;;;4991404;28;20034;-84
2023/03/17 05:14:00;;;;;;;9.05;4.18;;;5.80;49.30;;;;;;4991849;28;20553;-84
2023/03/17 05:16:26;;;;;;;9.40;4.22;;;5.80;49.10;;;;;;4993103;28;20141;-84
2023/03/17 05:18:52;;;;;;;35.25;9.82;;;5.80;48.90;;;;;;4993275;28;20022;-85
2023/03/17 05:21:18;;;;;;;16.38;8.07;;;5.80;49.40;;;;;;4993124;28;20034;-84
2023/03/17 05:23:44;;;;;;;12.30;5.53;;;5.80;49.70;;;;;;4993400;28;20026;-86
2023/03/17 05:26:09;;;;;;;18.13;6.13;;;5.70;49.70;;;;;;4992927;28;20073;-85
2023/03/17 05:28:35;;;;;;;18.75;5.75;;;5.70;49.70;;;;;;4992934;28;20377;-84
2023/03/17 05:31:02;;;;;;;23.75;5.63;;;5.60;49.70;;;;;;4992521;28;20030;-86
2023/03/17 05:33:28;;;;;;;13.00;4.70;;;5.60;49.70;;;;;;4993347;28;20434;-85
2023/03/17 05:35:54;;;;;;;9.82;3.40;;;5.60;49.50;;;;;;4993788;28;20376;-85
2023/03/17 05:38:23;;;;;;;7.65;3.88;;;5.60;49.30;;;;;;4994216;28;20026;-85
2023/03/17 05:40:50;;;;;;;9.65;3.83;;;5.50;49.40;;;;;;4992244;28;20529;-86
2023/03/17 05:43:16;;;;;;;9.27;3.92;;;5.50;49.30;;;;;;4992015;28;20034;-84
2023/03/17 05:45:42;;;;;;;6.35;2.92;;;5.60;49.30;;;;;;4994026;28;20025;-83
2023/03/17 05:48:07;;;;;;;7.97;3.03;;;5.70;49.20;;;;;;4993090;28;20352;-84
2023/03/17 05:50:33;;;;;;;7.20;2.92;;;5.70;49.10;;;;;;4992871;28;20031;-84
2023/03/17 05:52:59;;;;;;;10.60;3.03;;;5.70;49.00;;;;;;4992681;28;20041;-84
2023/03/17 05:55:25;;;;;;;6.35;2.40;;;5.80;49.00;;;;;;4991104;28;20062;-85
2023/03/17 05:57:51;;;;;;;7.50;2.95;;;5.80;48.80;;;;;;4992193;28;20058;-84
2023/03/17 06:00:17;;;;;;;13.45;3.33;;;5.90;48.80;;;;;;4993556;28;20026;-84
2023/03/17 06:02:43;;;;;;;6.35;2.50;;;5.90;49.00;;;;;;4993678;28;20045;-84
2023/03/17 06:05:12;;;;;;;7.63;3.03;;;6.00;49.10;;;;;;4992156;28;20030;-83
2023/03/17 06:07:38;;;;;;;4.57;2.20;;;6.00;48.90;;;;;;4984004;28;20539;-84
2023/03/17 06:10:05;;;;;;;5.88;2.75;;;6.10;48.90;;;;;;4992336;28;20146;-84
2023/03/17 06:12:31;;;;;;;7.55;2.83;;;6.20;48.80;;;;;;4993192;28;20030;-85
2023/03/17 06:14:57;;;;;;;11.38;4.00;;;6.20;48.70;;;;;;4992381;28;20550;-84
2023/03/17 06:17:24;;;;;;;9.43;3.60;;;6.30;48.90;;;;;;4992069;28;20053;-83
2023/03/17 06:19:59;;;;;;;9.85;3.80;;;6.40;48.90;;;;;;4993139;28;20081;-84
2023/03/17 06:22:24;;;;;;;14.35;4.88;;;6.50;49.00;;;;;;4993274;28;20042;-83
2023/03/17 06:24:52;;;;;;;9.77;4.70;;;6.50;48.90;;;;;;4992387;28;20072;-84
2023/03/17 06:27:18;;;;;;;13.48;5.65;;;6.60;48.70;;;;;;4991921;28;20058;-84
2023/03/17 06:29:44;;;;;;;12.90;5.03;;;6.70;48.60;;;;;;4993254;28;20029;-83
2023/03/17 06:32:11;;;;;;;15.88;5.32;;;6.80;48.40;;;;;;4993499;28;20388;-84
2023/03/17 06:34:37;;;;;;;19.10;6.35;;;6.80;48.20;;;;;;4994535;28;20018;-83
2023/03/17 06:37:05;;;;;;;17.83;5.65;;;6.90;48.00;;;;;;5010580;28;20450;-83
2023/03/17 06:39:33;;;;;;;11.77;5.30;;;7.00;47.80;;;;;;5010885;28;20034;-81
2023/03/17 06:41:59;;;;;;;8.38;4.50;;;7.00;48.30;;;;;;5012548;28;20038;-81
2023/03/17 06:44:25;;;;;;;12.95;4.65;;;7.10;47.80;;;;;;5011578;28;20045;-80
2023/03/17 06:46:51;;;;;;;16.13;4.65;;;7.20;47.70;;;;;;5005393;28;20117;-86
2023/03/17 06:49:17;;;;;;;16.15;4.35;;;7.30;47.50;;;;;;4996297;28;20622;-82
2023/03/17 06:51:43;;;;;;;11.82;5.05;;;7.30;47.20;;;;;;4996297;28;20488;-84
2023/03/17 06:54:09;;;;;;;17.63;4.50;;;7.40;47.10;;;;;;4994345;28;20041;-83
2023/03/17 06:56:35;;;;;;;9.52;4.40;;;7.40;46.90;;;;;;4994567;28;20038;-84
2023/03/17 06:59:01;;;;;;;15.23;4.70;;;7.50;46.70;;;;;;4991380;28;20034;-87
2023/03/17 07:01:27;;;;;;;9.18;4.32;;;7.60;46.60;;;;;;4992814;28;20039;-85
2023/03/17 07:03:54;;;;;;;11.32;4.80;;;7.70;46.50;;;;;;4993327;28;20027;-86
2023/03/17 07:06:22;;;;;;;11.93;5.50;;;7.70;46.30;;;;;;4992974;28;20081;-85
2023/03/17 07:08:48;;;;;;;21.63;6.00;;;7.70;45.90;;;;;;4992663;28;20030;-85
2023/03/17 07:11:14;;;;;;;16.73;5.75;;;7.80;45.80;;;;;;4991358;28;20117;-86
2023/03/17 07:13:40;;;;;;;19.15;5.65;;;7.90;45.90;;;;;;4991038;28;20026;-84
2023/03/17 07:16:06;;;;;;;16.58;5.78;;;7.90;45.70;;;;;;4992600;28;20566;-86
2023/03/17 07:18:33;;;;;;;18.48;6.45;;;8.00;45.70;;;;;;4991401;28;20026;-85
2023/03/17 07:21:02;;;;;;;14.90;6.53;;;8.10;45.70;;;;;;4992617;28;20061;-84
2023/03/17 07:23:28;;;;;;;16.83;6.40;;;8.20;45.50;;;;;;4992808;28;20023;-85
2023/03/17 07:25:56;;;;;;;21.38;6.68;;;8.30;45.40;;;;;;4990561;28;20495;-85
2023/03/17 07:28:22;;;;;;;16.00;6.55;;;8.40;45.50;;;;;;4992386;28;20072;-84
2023/03/17 07:30:48;;;;;;;26.75;9.18;;;8.50;45.20;;;;;;4991515;28;20042;-84
2023/03/17 07:33:16;;;;;;;28.25;10.13;;;8.60;44.90;;;;;;4992077;28;20034;-85
2023/03/17 07:35:43;;;;;;;30.92;10.27;;;8.70;44.20;;;;;;4991843;28;20125;-84
2023/03/17 07:38:10;;;;;;;35.17;11.45;;;8.80;44.00;;;;;;4991244;28;20069;-84
2023/03/17 07:40:37;;;;;;;26.30;9.25;;;8.80;43.70;;;;;;4992687;28;20146;-85
2023/03/17 07:43:03;;;;;;;23.10;9.35;;;8.80;43.50;;;;;;4992146;28;20034;-85
2023/03/17 07:45:30;;;;;;;33.92;9.35;;;8.90;43.00;;;;;;4992554;28;20026;-84
2023/03/17 07:47:55;;;;;;;28.40;9.23;;;8.90;43.00;;;;;;4990958;28;20034;-84
2023/03/17 07:50:22;;;;;;;31.17;9.60;;;8.90;42.70;;;;;;4992206;28;20503;-87
2023/03/17 07:52:47;;;;;;;20.67;9.25;;;8.90;42.60;;;;;;4992626;28;20038;-86
2023/03/17 07:55:14;;;;;;;20.25;8.73;;;9.00;42.30;;;;;;4992053;28;20387;-84
2023/03/17 07:57:40;;;;;;;34.55;10.20;;;9.00;42.10;;;;;;4991507;28;20034;-85
2023/03/17 08:00:09;;;;;;;24.17;9.70;;;9.00;41.90;;;;;;4991964;28;20029;-86
2023/03/17 08:02:36;;;;;;;19.92;8.13;;;9.00;41.90;;;;;;4991233;28;20026;-84
2023/03/17 08:05:02;;;;;;;27.25;9.63;;;9.00;42.10;;;;;;4991715;28;20050;-86
2023/03/17 08:07:30;;;;;;;26.98;10.18;;;9.10;42.30;;;;;;4994542;28;20538;-85
2023/03/17 08:09:56;;;;;;;24.92;9.82;;;9.20;42.20;;;;;;4996220;28;20089;-84
2023/03/17 08:12:23;;;;;;;28.13;10.55;;;9.20;42.20;;;;;;4994750;28;20019;-85
2023/03/17 08:14:49;;;;;;;22.65;7.68;;;9.30;41.90;;;;;;4995822;28;20019;-85
2023/03/17 08:17:15;;;;;;;23.30;8.80;;;9.40;42.10;;;;;;4994642;28;20100;-84
2023/03/17 08:19:41;;;;;;;19.48;8.02;;;9.50;42.00;;;;;;4994391;28;20043;-87
2023/03/17 08:22:08;;;;;;;23.17;8.55;;;9.60;42.20;;;;;;4995762;28;20507;-85
2023/03/17 08:24:34;;;;;;;25.48;9.65;;;9.70;41.90;;;;;;4994489;28;20034;-84
2023/03/17 08:27:00;;;;;;;19.73;7.85;;;9.70;41.50;;;;;;4995371;28;20034;-87
2023/03/17 08:29:27;;;;;;;22.65;7.65;;;9.80;41.60;;;;;;4995371;28;20038;-85
2023/03/17 08:31:53;;;;;;;23.83;8.05;;;9.90;41.80;;;;;;4995455;28;20033;-85
2023/03/17 08:34:19;;;;;;;21.58;8.43;;;9.90;41.70;;;;;;4995466;28;20038;-85
2023/03/17 08:36:45;;;;;;;25.85;9.07;;;10.00;41.70;;;;;;4994020;28;20133;-84
2023/03/17 08:39:11;;;;;;;27.25;9.35;;;10.10;41.60;;;;;;4994242;28;20026;-86
2023/03/17 08:41:37;;;;;;;18.45;8.43;;;10.20;41.60;;;;;;4993022;28;20029;-87
2023/03/17 08:44:03;;;;;;;17.55;8.38;;;10.30;41.50;;;;;;4994332;28;20030;-83
2023/03/17 08:46:31;;;;;;;30.02;8.73;;;10.40;41.30;;;;;;4994121;28;20042;-85
2023/03/17 08:48:58;;;;;;;29.67;7.88;;;10.40;40.80;;;;;;4994736;28;20510;-85
2023/03/17 08:51:27;;;;;;;14.50;6.50;;;10.50;40.60;;;;;;4994045;28;20559;-86
2023/03/17 08:53:54;;;;;;;13.65;5.97;;;10.60;40.50;;;;;;4995190;28;20031;-84
2023/03/17 08:56:20;;;;;;;15.43;5.45;;;10.60;40.40;;;;;;4992243;28;20031;-84
2023/03/17 08:58:46;;;;;;;17.60;6.07;;;10.70;40.20;;;;;;4994613;28;20506;-84
2023/03/17 09:01:12;;;;;;;15.02;5.72;;;10.80;39.90;;;;;;4992879;28;20479;-86
2023/03/17 09:03:39;;;;;;;13.05;4.88;;;10.90;40.00;;;;;;4993345;28;20114;-85
2023/03/17 09:06:07;;;;;;;15.35;5.10;;;10.90;39.90;;;;;;4994727;28;20034;-85
2023/03/17 09:08:33;;;;;;;13.25;4.88;;;11.00;39.80;;;;;;4990877;28;20395;-83
2023/03/17 09:11:02;;;;;;;14.13;5.20;;;11.10;39.70;;;;;;4993113;28;20030;-87
2023/03/17 09:13:28;;;;;;;20.05;6.18;;;11.10;38.60;;;;;;4993512;28;20026;-85
2023/03/17 09:15:54;;;;;;;14.60;5.18;;;11.20;38.40;;;;;;4994375;28;20504;-84
2023/03/17 09:18:21;;;;;;;16.90;6.35;;;11.30;38.40;;;;;;4993391;28;20063;-85
2023/03/17 09:20:46;;;;;;;18.58;6.25;;;11.30;38.50;;;;;;4993487;28;20058;-86
2023/03/17 09:23:12;;;;;;;22.65;6.43;;;11.50;38.20;;;;;;4993347;28;20510;-85
2023/03/17 09:25:41;;;;;;;17.55;6.32;;;11.60;38.30;;;;;;4995200;28;20117;-85
2023/03/17 09:28:07;;;;;;;19.52;6.75;;;11.70;38.30;;;;;;4992777;28;20121;-86
2023/03/17 09:30:34;;;;;;;20.45;7.32;;;11.70;38.40;;;;;;4994173;28;20026;-84
2023/03/17 09:32:59;;;;;;;13.45;5.95;;;11.80;38.40;;;;;;4993648;28;20030;-83
2023/03/17 09:35:30;;;;;;;25.98;7.75;;;11.90;38.30;;;;;;4993120;28;20537;-85
2023/03/17 09:37:56;;;;;;;16.73;6.50;;;12.00;37.80;;;;;;4994072;28;20056;-83
2023/03/17 09:40:31;;;;;;;14.75;5.75;;;12.10;37.70;;;;;;4993286;28;20026;-86
2023/03/17 09:43:23;;;;;;;20.08;5.53;;;12.10;37.40;;;;;;4992954;28;20069;-84
2023/03/17 09:45:51;;;;;;;13.75;5.10;;;12.20;37.40;;;;;;4996209;28;20041;-84
2023/03/17 09:48:58;;;;;;;19.77;5.45;;;12.30;37.50;;;;;;4994399;28;20030;-84
2023/03/17 09:51:24;;;;;;;15.77;5.15;;;12.40;37.30;;;;;;4991497;28;20357;-84
2023/03/17 09:54:02;;;;;;;14.68;4.60;;;12.50;37.20;;;;;;4993094;28;20035;-84
2023/03/17 09:56:32;;;;;;;17.15;4.50;;;12.50;37.10;;;;;;4992872;28;20034;-85
2023/03/17 09:59:17;;;;;;;11.52;4.65;;;12.60;37.10;;;;;;4992085;28;20420;-84
2023/03/17 10:01:42;;;;;;;14.55;5.10;;;12.60;36.90;;;;;;4991700;28;20391;-84
2023/03/17 10:04:10;;;;;;;11.82;4.47;;;12.70;35.90;;;;;;4993784;28;20101;-84
2023/03/17 10:06:42;;;;;;;23.73;4.93;;;12.70;35.80;;;;;;4993692;28;20042;-83
2023/03/17 10:09:34;;;;;;;16.10;4.63;;;12.80;35.60;;;;;;4993978;28;20037;-85
2023/03/17 10:12:11;;;;;;;22.83;5.22;;;12.80;36.00;;;;;;4991756;28;20395;-84
2023/03/17 10:14:53;;;;;;;19.88;5.53;;;12.90;36.20;;;;;;4993600;28;20037;-87
2023/03/17 10:17:22;;;;;;;20.83;6.93;;;13.00;35.80;;;;;;5002078;28;20041;-85
2023/03/17 10:19:56;;;;;;;17.30;5.22;;;13.00;35.70;;;;;;4992450;28;20053;-83
2023/03/17 10:22:44;;;;;;;15.80;4.53;;;13.10;35.50;;;;;;4996510;28;20053;-84
2023/03/17 10:25:23;;;;;;;15.52;5.15;;;13.10;35.70;;;;;;4993076;28;20113;-85
2023/03/17 10:28:14;;;;;;;14.93;5.63;;;13.30;35.70;;;;;;4990755;28;20494;-84
2023/03/17 10:30:42;;;;;;;13.15;5.25;;;13.30;35.30;;;;;;4991951;28;20034;-84
2023/03/17 10:33:08;;;;;;;16.83;6.13;;;13.40;35.30;;;;;;4992019;28;20030;-84
2023/03/17 10:35:38;;;;;;;18.17;6.35;;;13.50;35.60;;;;;;4993330;28;20030;-85
2023/03/17 10:38:23;;;;;;;28.90;6.75;;;13.50;35.30;;;;;;4991425;28;20080;-83
2023/03/17 10:41:04;;;;;;;15.20;5.10;;;13.60;35.30;;;;;;4992596;28;20097;-85
2023/03/17 10:43:37;;;;;;;11.07;5.50;;;13.60;35.30;;;;;;4992101;28;20375;-85
2023/03/17 10:46:07;;;;;;;18.90;5.57;;;13.70;35.40;;;;;;4991919;28;20034;-85
2023/03/17 10:48:38;;;;;;;12.70;5.07;;;13.80;34.80;;;;;;4991838;28;20117;-83
2023/03/17 10:51:08;;;;;;;11.50;4.40;;;13.80;34.80;;;;;;4990830;28;20030;-86
2023/03/17 10:53:42;;;;;;;12.82;4.50;;;14.00;34.80;;;;;;4990127;28;20510;-84
2023/03/17 10:56:09;;;;;;;17.02;5.18;;;14.00;34.90;;;;;;4992010;28;20030;-84
2023/03/17 10:58:45;;;;;;;14.48;5.05;;;14.10;34.10;;;;;;4992069;28;20491;-85
2023/03/17 11:01:33;;;;;;;8.80;3.80;;;14.20;34.00;;;;;;4993051;28;20030;-84
2023/03/17 11:04:01;;;;;;;9.63;4.07;;;14.20;34.20;;;;;;4990583;28;20077;-85
2023/03/17 11:06:40;;;;;;;14.32;4.65;;;14.30;33.80;;;;;;4991510;28;20042;-85
2023/03/17 11:09:20;;;;;;;12.07;5.22;;;14.40;33.80;;;;;;4990825;28;20727;-84
2023/03/17 11:11:48;;;;;;;12.27;3.97;;;14.50;33.90;;;;;;4992887;28;20128;-85
2023/03/17 11:14:17;;;;;;;9.07;4.63;;;14.60;34.10;;;;;;4991577;28;20041;-83
2023/03/17 11:16:55;;;;;;;7.05;3.65;;;14.70;33.80;;;;;;4992560;28;20520;-83
2023/03/17 11:19:43;;;;;;;9.85;3.50;;;14.80;33.70;;;;;;4991433;28;20053;-85
2023/03/17 11:22:24;;;;;;;20.75;3.97;;;14.80;33.30;;;;;;4991890;28;20046;-83
2023/03/17 11:24:54;;;;;;;10.35;4.15;;;14.90;33.10;;;;;;4992495;28;20483;-83
2023/03/17 11:27:31;;;;;;;15.13;3.47;;;15.00;33.10;;;;;;4992517;28;20030;-83
2023/03/17 11:30:15;;;;;;;9.75;3.38;;;15.00;33.00;;;;;;4990512;28;20023;-83
2023/03/17 11:32:55;;;;;;;9.35;3.55;;;15.10;33.20;;;;;;4990271;28;20022;-82
2023/03/17 11:35:48;;;;;;;9.23;3.95;;;15.10;32.90;;;;;;4992121;28;20034;-85
2023/03/17 11:38:27;;;;;;;8.95;4.65;;;15.20;33.20;;;;;;4990476;28;20125;-83
2023/03/17 11:41:07;;;;;;;9.82;4.18;;;15.30;33.20;;;;;;4993438;28;20495;-85
2023/03/17 11:43:39;;;;;;;12.30;4.35;;;15.40;33.30;;;;;;4996563;28;20026;-82
2023/03/17 11:46:26;;;;;;;7.68;4.05;;;15.50;33.40;;;;;;4992856;28;20030;-84
2023/03/17 11:48:59;;;;;;;6.60;3.60;;;15.50;33.50;;;;;;4994866;28;20070;-83
2023/03/17 11:51:51;;;;;;;9.90;3.87;;;15.60;33.10;;;;;;4995166;28;20030;-85
2023/03/17 11:54:25;;;;;;;7.28;4.00;;;15.70;33.10;;;;;;4995096;28;20089;-84
2023/03/17 11:56:56;;;;;;;9.70;4.28;;;15.70;33.10;;;;;;4995753;28;20065;-84
2023/03/17 11:59:35;;;;;;;8.15;4.50;;;15.80;32.80;;;;;;4995579;28;20526;-84
2023/03/17 12:02:37;;;;;;;7.15;3.83;;;15.80;32.10;;;;;;4993462;28;20105;-83
2023/03/17 12:05:11;;;;;;;10.98;4.25;;;15.90;32.20;;;;;;4994806;28;20467;-87
2023/03/17 12:07:58;;;;;;;10.02;3.90;;;15.90;32.10;;;;;;4994411;28;20037;-83
2023/03/17 12:10:33;;;;;;;8.27;4.32;;;16.00;31.80;;;;;;4991985;28;20034;-80
2023/03/17 12:13:06;;;;;;;10.70;3.38;;;16.00;31.20;;;;;;4993780;28;20113;-80
2023/03/17 12:15:44;;;;;;;6.33;2.97;;;16.10;31.20;;;;;;4993562;28;20038;-79
2023/03/17 12:18:14;;;;;;;7.43;3.38;;;16.10;30.80;;;;;;4995118;28;20498;-80
2023/03/17 12:21:12;;;;;;;7.03;3.08;;;16.30;31.80;;;;;;4995833;28;20022;-80
2023/03/17 12:23:48;;;;;;;7.50;3.10;;;16.40;31.40;;;;;;4994060;28;20398;-80
2023/03/17 12:26:36;;;;;;;8.80;3.08;;;16.40;31.00;;;;;;4992454;28;20034;-80
2023/03/17 12:29:12;;;;;;;8.32;3.80;;;16.50;31.00;;;;;;4993369;28;20037;-80
2023/03/17 12:31:51;;;;;;;7.70;4.03;;;16.60;30.60;;;;;;4991860;28;20491;-80
2023/03/17 12:34:31;;;;;;;6.63;3.53;;;16.60;30.20;;;;;;4993285;28;20076;-80
2023/03/17 12:36:57;;;;;;;7.15;3.70;;;16.70;30.50;;;;;;4992163;28;20399;-80
2023/03/17 12:39:32;;;;;;;9.55;3.33;;;16.80;30.70;;;;;;4994747;28;20027;-80
2023/03/17 12:42:29;;;;;;;4.50;3.05;;;16.90;31.00;;;;;;4993238;28;20022;-79
2023/03/17 12:45:17;;;;;;;5.15;3.35;;;17.00;31.10;;;;;;4991983;28;20065;-80
2023/03/17 12:48:01;;;;;;;6.25;2.97;;;17.10;29.90;;;;;;4994451;28;20046;-80
2023/03/17 12:50:33;;;;;;;7.80;3.33;;;17.10;29.70;;;;;;4991809;28;20022;-79
2023/03/17 12:53:08;;;;;;;5.63;2.88;;;17.20;30.10;;;;;;4991853;28;20056;-80
2023/03/17 12:55:37;;;;;;;7.63;3.47;;;17.30;29.90;;;;;;4994340;28;20129;-79
2023/03/17 12:58:14;;;;;;;8.68;3.63;;;17.30;30.00;;;;;;4992276;28;20121;-79
2023/03/17 13:01:16;;;;;;;9.07;3.50;;;17.40;29.80;;;;;;4994028;28;20049;-79
2023/03/17 13:03:56;;;;;;;6.00;3.95;;;17.50;30.10;;;;;;4993327;28;20468;-79
2023/03/17 13:06:23;;;;;;;8.55;4.28;;;17.60;29.70;;;;;;4994154;28;20034;-79